sensor_id;sensor_type;location;lat;lon;timestamp;P1;durP1;ratioP1;P2;durP2;ratioP2
66587;SDS011;53446;50.076;8.198;2023-02-15T00:00:11;52.03;;;16.17;;
66587;SDS011;53446;50.076;8.198;2023-02-15T00:02:11;66.97;;;16.00;;
66587;SDS011;53446;50.076;8.198;2023-02-15T00:04:12;94.05;;;19.17;;
66587;SDS011;53446;50.076;8.198;2023-02-15T00:06:13;56.63;;;17.77;;
66587;SDS011;53446;50.076;8.198;2023-02-15T00:08:13;56.10;;;18.23;;
66587;SDS011;53446;50.076;8.198;2023-02-15T00:10:13;83.60;;;19.35;;
66587;SDS011;53446;50.076;8.198;2023-02-15T00:12:14;47.70;;;17.67;;
66587;SDS011;53446;50.076;8.198;2023-02-15T00:14:16;51.60;;;16.75;;
66587;SDS011;53446;50.076;8.198;2023-02-15T00:16:16;114.07;;;19.73;;
66587;SDS011;53446;50.076;8.198;2023-02-15T00:18:16;88.47;;;18.67;;
66587;SDS011;53446;50.076;8.198;2023-02-15T00:20:17;243.07;;;25.30;;
66587;SDS011;53446;50.076;8.198;2023-02-15T00:22:18;184.82;;;21.85;;
66587;SDS011;53446;50.076;8.198;2023-02-15T00:24:18;206.47;;;23.37;;
66587;SDS011;53446;50.076;8.198;2023-02-15T00:26:19;95.80;;;18.38;;
66587;SDS011;53446;50.076;8.198;2023-02-15T00:28:19;101.90;;;19.07;;
66587;SDS011;53446;50.076;8.198;2023-02-15T00:30:19;63.77;;;17.97;;
66587;SDS011;53446;50.076;8.198;2023-02-15T00:32:19;152.45;;;20.80;;
66587;SDS011;53446;50.076;8.198;2023-02-15T00:34:20;90.07;;;18.70;;
66587;SDS011;53446;50.076;8.198;2023-02-15T00:36:21;67.15;;;17.90;;
66587;SDS011;53446;50.076;8.198;2023-02-15T00:38:21;109.80;;;17.80;;
66587;SDS011;53446;50.076;8.198;2023-02-15T00:40:21;231.13;;;23.63;;
66587;SDS011;53446;50.076;8.198;2023-02-15T00:42:22;249.73;;;43.90;;
66587;SDS011;53446;50.076;8.198;2023-02-15T00:44:22;128.87;;;20.00;;
66587;SDS011;53446;50.076;8.198;2023-02-15T00:46:22;133.30;;;18.43;;
66587;SDS011;53446;50.076;8.198;2023-02-15T00:48:22;111.43;;;18.20;;
66587;SDS011;53446;50.076;8.198;2023-02-15T00:50:22;111.27;;;17.33;;
66587;SDS011;53446;50.076;8.198;2023-02-15T00:52:22;72.40;;;15.47;;
66587;SDS011;53446;50.076;8.198;2023-02-15T00:54:22;92.35;;;16.73;;
66587;SDS011;53446;50.076;8.198;2023-02-15T00:56:23;54.17;;;14.73;;
66587;SDS011;53446;50.076;8.198;2023-02-15T00:58:23;71.63;;;15.93;;
66587;SDS011;53446;50.076;8.198;2023-02-15T01:00:23;74.63;;;14.77;;
66587;SDS011;53446;50.076;8.198;2023-02-15T01:02:23;53.90;;;14.90;;
66587;SDS011;53446;50.076;8.198;2023-02-15T01:04:23;60.97;;;15.40;;
66587;SDS011;53446;50.076;8.198;2023-02-15T01:06:23;101.57;;;16.87;;
66587;SDS011;53446;50.076;8.198;2023-02-15T01:08:24;79.10;;;14.43;;
66587;SDS011;53446;50.076;8.198;2023-02-15T01:10:24;71.00;;;15.37;;
66587;SDS011;53446;50.076;8.198;2023-02-15T01:12:25;60.00;;;13.87;;
66587;SDS011;53446;50.076;8.198;2023-02-15T01:14:25;102.60;;;15.77;;
66587;SDS011;53446;50.076;8.198;2023-02-15T01:16:26;56.70;;;15.17;;
66587;SDS011;53446;50.076;8.198;2023-02-15T01:18:26;54.38;;;15.27;;
66587;SDS011;53446;50.076;8.198;2023-02-15T01:20:27;71.33;;;16.77;;
66587;SDS011;53446;50.076;8.198;2023-02-15T01:22:27;41.40;;;12.85;;
66587;SDS011;53446;50.076;8.198;2023-02-15T01:24:27;89.30;;;16.17;;
66587;SDS011;53446;50.076;8.198;2023-02-15T01:26:28;175.93;;;18.90;;
66587;SDS011;53446;50.076;8.198;2023-02-15T01:28:28;99.60;;;17.03;;
66587;SDS011;53446;50.076;8.198;2023-02-15T01:30:28;159.03;;;20.13;;
66587;SDS011;53446;50.076;8.198;2023-02-15T01:32:28;79.55;;;16.77;;
66587;SDS011;53446;50.076;8.198;2023-02-15T01:34:29;84.43;;;16.97;;
66587;SDS011;53446;50.076;8.198;2023-02-15T01:36:29;47.90;;;15.18;;
66587;SDS011;53446;50.076;8.198;2023-02-15T01:38:30;45.20;;;14.55;;
66587;SDS011;53446;50.076;8.198;2023-02-15T01:40:30;68.23;;;14.40;;
66587;SDS011;53446;50.076;8.198;2023-02-15T01:42:31;70.67;;;15.70;;
66587;SDS011;53446;50.076;8.198;2023-02-15T01:44:47;60.17;;;14.50;;
66587;SDS011;53446;50.076;8.198;2023-02-15T01:46:50;88.28;;;16.67;;
66587;SDS011;53446;50.076;8.198;2023-02-15T01:48:52;88.47;;;16.42;;
66587;SDS011;53446;50.076;8.198;2023-02-15T01:50:54;108.28;;;16.90;;
66587;SDS011;53446;50.076;8.198;2023-02-15T01:52:56;78.55;;;14.88;;
66587;SDS011;53446;50.076;8.198;2023-02-15T01:54:57;88.43;;;16.27;;
66587;SDS011;53446;50.076;8.198;2023-02-15T01:56:59;82.87;;;15.17;;
66587;SDS011;53446;50.076;8.198;2023-02-15T01:59:03;73.43;;;14.50;;
66587;SDS011;53446;50.076;8.198;2023-02-15T02:01:04;86.43;;;14.65;;
66587;SDS011;53446;50.076;8.198;2023-02-15T02:03:05;76.93;;;14.07;;
66587;SDS011;53446;50.076;8.198;2023-02-15T02:05:05;54.13;;;13.97;;
66587;SDS011;53446;50.076;8.198;2023-02-15T02:07:06;72.97;;;14.67;;
66587;SDS011;53446;50.076;8.198;2023-02-15T02:09:07;71.88;;;13.73;;
66587;SDS011;53446;50.076;8.198;2023-02-15T02:11:11;142.53;;;17.23;;
66587;SDS011;53446;50.076;8.198;2023-02-15T02:13:11;72.07;;;14.43;;
66587;SDS011;53446;50.076;8.198;2023-02-15T02:15:11;42.60;;;13.00;;
66587;SDS011;53446;50.076;8.198;2023-02-15T02:26:37;62.63;;;15.20;;
66587;SDS011;53446;50.076;8.198;2023-02-15T02:31:09;80.72;;;16.02;;
66587;SDS011;53446;50.076;8.198;2023-02-15T02:35:38;66.43;;;14.57;;
66587;SDS011;53446;50.076;8.198;2023-02-15T02:37:46;199.10;;;19.93;;
66587;SDS011;53446;50.076;8.198;2023-02-15T02:42:16;256.02;;;23.17;;
66587;SDS011;53446;50.076;8.198;2023-02-15T02:44:29;295.90;;;24.90;;
66587;SDS011;53446;50.076;8.198;2023-02-15T02:46:32;219.90;;;24.50;;
66587;SDS011;53446;50.076;8.198;2023-02-15T02:48:34;248.17;;;21.80;;
66587;SDS011;53446;50.076;8.198;2023-02-15T02:50:34;325.67;;;28.90;;
66587;SDS011;53446;50.076;8.198;2023-02-15T02:52:42;444.27;;;32.67;;
66587;SDS011;53446;50.076;8.198;2023-02-15T02:54:42;400.17;;;30.52;;
66587;SDS011;53446;50.076;8.198;2023-02-15T02:56:43;340.93;;;27.30;;
66587;SDS011;53446;50.076;8.198;2023-02-15T02:58:46;174.38;;;21.00;;
66587;SDS011;53446;50.076;8.198;2023-02-15T03:00:55;275.75;;;22.25;;
66587;SDS011;53446;50.076;8.198;2023-02-15T03:02:57;350.05;;;26.95;;
66587;SDS011;53446;50.076;8.198;2023-02-15T03:05:00;172.73;;;20.93;;
66587;SDS011;53446;50.076;8.198;2023-02-15T03:07:07;384.45;;;30.75;;
66587;SDS011;53446;50.076;8.198;2023-02-15T03:09:11;301.02;;;28.17;;
66587;SDS011;53446;50.076;8.198;2023-02-15T03:11:14;253.13;;;26.95;;
66587;SDS011;53446;50.076;8.198;2023-02-15T03:13:15;341.60;;;29.97;;
66587;SDS011;53446;50.076;8.198;2023-02-15T03:15:16;203.57;;;23.80;;
66587;SDS011;53446;50.076;8.198;2023-02-15T03:17:19;112.78;;;20.17;;
66587;SDS011;53446;50.076;8.198;2023-02-15T03:19:24;118.35;;;19.88;;
66587;SDS011;53446;50.076;8.198;2023-02-15T03:21:31;161.73;;;23.07;;
66587;SDS011;53446;50.076;8.198;2023-02-15T03:23:32;247.02;;;26.08;;
66587;SDS011;53446;50.076;8.198;2023-02-15T03:25:33;196.80;;;23.40;;
66587;SDS011;53446;50.076;8.198;2023-02-15T03:27:36;114.05;;;20.77;;
66587;SDS011;53446;50.076;8.198;2023-02-15T03:29:37;112.00;;;20.50;;
66587;SDS011;53446;50.076;8.198;2023-02-15T03:31:40;143.80;;;21.45;;
66587;SDS011;53446;50.076;8.198;2023-02-15T03:33:42;492.27;;;35.95;;
66587;SDS011;53446;50.076;8.198;2023-02-15T03:35:49;380.73;;;31.53;;
66587;SDS011;53446;50.076;8.198;2023-02-15T03:37:59;429.70;;;34.78;;
66587;SDS011;53446;50.076;8.198;2023-02-15T03:40:02;435.33;;;35.35;;
66587;SDS011;53446;50.076;8.198;2023-02-15T03:42:24;345.35;;;30.48;;
66587;SDS011;53446;50.076;8.198;2023-02-15T03:44:31;326.50;;;28.42;;
66587;SDS011;53446;50.076;8.198;2023-02-15T03:46:35;435.00;;;32.03;;
66587;SDS011;53446;50.076;8.198;2023-02-15T03:48:38;379.88;;;31.30;;
66587;SDS011;53446;50.076;8.198;2023-02-15T03:50:39;372.55;;;30.25;;
66587;SDS011;53446;50.076;8.198;2023-02-15T03:52:58;302.50;;;26.13;;
66587;SDS011;53446;50.076;8.198;2023-02-15T03:54:59;486.75;;;36.17;;
66587;SDS011;53446;50.076;8.198;2023-02-15T03:57:00;232.40;;;24.90;;
66587;SDS011;53446;50.076;8.198;2023-02-15T03:59:19;384.17;;;30.90;;
66587;SDS011;53446;50.076;8.198;2023-02-15T04:01:39;165.40;;;21.02;;
66587;SDS011;53446;50.076;8.198;2023-02-15T04:04:03;314.30;;;30.05;;
66587;SDS011;53446;50.076;8.198;2023-02-15T04:06:06;404.17;;;32.30;;
66587;SDS011;53446;50.076;8.198;2023-02-15T04:08:06;322.40;;;30.00;;
66587;SDS011;53446;50.076;8.198;2023-02-15T04:10:06;285.20;;;27.37;;
66587;SDS011;53446;50.076;8.198;2023-02-15T04:12:25;318.35;;;28.30;;
66587;SDS011;53446;50.076;8.198;2023-02-15T04:14:25;332.70;;;30.53;;
66587;SDS011;53446;50.076;8.198;2023-02-15T04:16:44;346.73;;;30.27;;
66587;SDS011;53446;50.076;8.198;2023-02-15T04:18:44;122.07;;;19.73;;
66587;SDS011;53446;50.076;8.198;2023-02-15T04:21:03;423.65;;;33.53;;
66587;SDS011;53446;50.076;8.198;2023-02-15T04:23:22;379.20;;;30.70;;
66587;SDS011;53446;50.076;8.198;2023-02-15T04:25:41;456.17;;;37.22;;
66587;SDS011;53446;50.076;8.198;2023-02-15T04:27:42;291.73;;;27.47;;
66587;SDS011;53446;50.076;8.198;2023-02-15T04:29:42;518.15;;;37.88;;
66587;SDS011;53446;50.076;8.198;2023-02-15T04:31:42;153.37;;;21.73;;
66587;SDS011;53446;50.076;8.198;2023-02-15T04:33:43;154.20;;;21.57;;
66587;SDS011;53446;50.076;8.198;2023-02-15T04:35:43;181.87;;;23.33;;
66587;SDS011;53446;50.076;8.198;2023-02-15T04:37:44;129.65;;;20.38;;
66587;SDS011;53446;50.076;8.198;2023-02-15T04:39:45;122.03;;;22.97;;
66587;SDS011;53446;50.076;8.198;2023-02-15T04:41:45;247.00;;;25.17;;
66587;SDS011;53446;50.076;8.198;2023-02-15T04:43:45;129.80;;;20.43;;
66587;SDS011;53446;50.076;8.198;2023-02-15T04:45:49;488.45;;;39.75;;
66587;SDS011;53446;50.076;8.198;2023-02-15T04:47:50;230.23;;;25.83;;
66587;SDS011;53446;50.076;8.198;2023-02-15T04:49:50;263.50;;;27.90;;
66587;SDS011;53446;50.076;8.198;2023-02-15T04:51:50;144.87;;;22.17;;
66587;SDS011;53446;50.076;8.198;2023-02-15T04:53:50;119.77;;;19.67;;
66587;SDS011;53446;50.076;8.198;2023-02-15T04:55:52;379.40;;;31.35;;
66587;SDS011;53446;50.076;8.198;2023-02-15T04:57:52;415.47;;;32.30;;
66587;SDS011;53446;50.076;8.198;2023-02-15T04:59:52;244.70;;;23.63;;
66587;SDS011;53446;50.076;8.198;2023-02-15T05:01:52;105.60;;;19.60;;
66587;SDS011;53446;50.076;8.198;2023-02-15T05:03:53;185.07;;;20.77;;
66587;SDS011;53446;50.076;8.198;2023-02-15T05:05:53;366.90;;;29.90;;
66587;SDS011;53446;50.076;8.198;2023-02-15T05:07:53;328.23;;;25.13;;
66587;SDS011;53446;50.076;8.198;2023-02-15T05:09:53;163.37;;;23.27;;
66587;SDS011;53446;50.076;8.198;2023-02-15T05:11:53;129.30;;;19.67;;
66587;SDS011;53446;50.076;8.198;2023-02-15T05:13:54;356.70;;;31.67;;
66587;SDS011;53446;50.076;8.198;2023-02-15T05:15:54;417.77;;;33.77;;
66587;SDS011;53446;50.076;8.198;2023-02-15T05:17:54;275.90;;;26.10;;
66587;SDS011;53446;50.076;8.198;2023-02-15T05:19:54;306.10;;;29.20;;
66587;SDS011;53446;50.076;8.198;2023-02-15T05:21:54;385.70;;;28.97;;
66587;SDS011;53446;50.076;8.198;2023-02-15T05:23:54;302.53;;;25.60;;
66587;SDS011;53446;50.076;8.198;2023-02-15T05:25:55;128.13;;;24.27;;
66587;SDS011;53446;50.076;8.198;2023-02-15T05:28:13;152.02;;;23.05;;
66587;SDS011;53446;50.076;8.198;2023-02-15T05:30:20;153.35;;;21.33;;
66587;SDS011;53446;50.076;8.198;2023-02-15T05:32:20;94.27;;;19.07;;
66587;SDS011;53446;50.076;8.198;2023-02-15T05:34:20;135.37;;;20.60;;
66587;SDS011;53446;50.076;8.198;2023-02-15T05:36:20;105.00;;;20.70;;
66587;SDS011;53446;50.076;8.198;2023-02-15T05:38:20;313.50;;;28.73;;
66587;SDS011;53446;50.076;8.198;2023-02-15T05:40:20;163.03;;;21.87;;
66587;SDS011;53446;50.076;8.198;2023-02-15T05:42:20;129.90;;;21.47;;
66587;SDS011;53446;50.076;8.198;2023-02-15T05:44:21;522.43;;;39.03;;
66587;SDS011;53446;50.076;8.198;2023-02-15T05:46:21;447.33;;;36.07;;
66587;SDS011;53446;50.076;8.198;2023-02-15T05:48:22;349.63;;;33.30;;
66587;SDS011;53446;50.076;8.198;2023-02-15T05:50:23;103.97;;;19.23;;
66587;SDS011;53446;50.076;8.198;2023-02-15T05:52:24;84.35;;;19.65;;
66587;SDS011;53446;50.076;8.198;2023-02-15T05:54:24;163.23;;;23.80;;
66587;SDS011;53446;50.076;8.198;2023-02-15T05:56:24;291.10;;;25.63;;
66587;SDS011;53446;50.076;8.198;2023-02-15T05:58:25;96.27;;;20.53;;
66587;SDS011;53446;50.076;8.198;2023-02-15T06:00:26;242.25;;;24.42;;
66587;SDS011;53446;50.076;8.198;2023-02-15T06:02:26;170.67;;;23.03;;
66587;SDS011;53446;50.076;8.198;2023-02-15T06:04:26;247.07;;;27.07;;
66587;SDS011;53446;50.076;8.198;2023-02-15T06:06:26;200.77;;;24.77;;
66587;SDS011;53446;50.076;8.198;2023-02-15T06:08:26;120.07;;;20.43;;
66587;SDS011;53446;50.076;8.198;2023-02-15T06:10:26;417.70;;;45.43;;
66587;SDS011;53446;50.076;8.198;2023-02-15T06:12:27;539.67;;;40.80;;
66587;SDS011;53446;50.076;8.198;2023-02-15T06:14:27;223.90;;;26.43;;
66587;SDS011;53446;50.076;8.198;2023-02-15T06:16:27;520.40;;;41.93;;
66587;SDS011;53446;50.076;8.198;2023-02-15T06:18:27;458.25;;;35.33;;
66587;SDS011;53446;50.076;8.198;2023-02-15T06:20:27;472.67;;;37.67;;
66587;SDS011;53446;50.076;8.198;2023-02-15T06:22:27;303.17;;;29.30;;
66587;SDS011;53446;50.076;8.198;2023-02-15T06:24:28;106.53;;;23.73;;
66587;SDS011;53446;50.076;8.198;2023-02-15T06:26:28;176.33;;;23.10;;
66587;SDS011;53446;50.076;8.198;2023-02-15T06:28:28;288.27;;;28.03;;
66587;SDS011;53446;50.076;8.198;2023-02-15T06:30:28;572.60;;;42.53;;
66587;SDS011;53446;50.076;8.198;2023-02-15T06:32:28;513.80;;;41.77;;
66587;SDS011;53446;50.076;8.198;2023-02-15T06:34:28;564.03;;;42.90;;
66587;SDS011;53446;50.076;8.198;2023-02-15T06:36:29;565.50;;;44.23;;
66587;SDS011;53446;50.076;8.198;2023-02-15T06:38:30;668.38;;;54.22;;
66587;SDS011;53446;50.076;8.198;2023-02-15T06:40:30;544.70;;;46.13;;
66587;SDS011;53446;50.076;8.198;2023-02-15T06:42:30;380.77;;;33.97;;
66587;SDS011;53446;50.076;8.198;2023-02-15T06:44:30;366.27;;;34.80;;
66587;SDS011;53446;50.076;8.198;2023-02-15T06:46:30;476.57;;;43.40;;
66587;SDS011;53446;50.076;8.198;2023-02-15T06:48:30;411.13;;;35.97;;
66587;SDS011;53446;50.076;8.198;2023-02-15T06:50:31;550.80;;;43.73;;
66587;SDS011;53446;50.076;8.198;2023-02-15T06:52:31;521.00;;;38.23;;
66587;SDS011;53446;50.076;8.198;2023-02-15T06:54:31;338.03;;;29.53;;
66587;SDS011;53446;50.076;8.198;2023-02-15T06:56:31;549.60;;;39.60;;
66587;SDS011;53446;50.076;8.198;2023-02-15T06:58:38;402.75;;;35.00;;
66587;SDS011;53446;50.076;8.198;2023-02-15T07:00:38;238.43;;;26.27;;
66587;SDS011;53446;50.076;8.198;2023-02-15T07:02:38;427.53;;;32.33;;
66587;SDS011;53446;50.076;8.198;2023-02-15T07:04:38;434.23;;;34.50;;
66587;SDS011;53446;50.076;8.198;2023-02-15T07:06:39;339.97;;;42.97;;
66587;SDS011;53446;50.076;8.198;2023-02-15T07:08:39;420.23;;;32.47;;
66587;SDS011;53446;50.076;8.198;2023-02-15T07:10:39;125.60;;;20.93;;
66587;SDS011;53446;50.076;8.198;2023-02-15T07:12:42;327.70;;;29.70;;
66587;SDS011;53446;50.076;8.198;2023-02-15T07:14:44;369.25;;;37.08;;
66587;SDS011;53446;50.076;8.198;2023-02-15T07:16:44;372.23;;;30.63;;
66587;SDS011;53446;50.076;8.198;2023-02-15T07:18:44;460.77;;;39.87;;
66587;SDS011;53446;50.076;8.198;2023-02-15T07:20:44;318.43;;;27.20;;
66587;SDS011;53446;50.076;8.198;2023-02-15T07:22:44;301.23;;;25.70;;
66587;SDS011;53446;50.076;8.198;2023-02-15T07:24:44;363.40;;;47.83;;
66587;SDS011;53446;50.076;8.198;2023-02-15T07:26:44;213.30;;;26.00;;
66587;SDS011;53446;50.076;8.198;2023-02-15T07:28:45;287.95;;;65.10;;
66587;SDS011;53446;50.076;8.198;2023-02-15T07:30:45;289.53;;;25.20;;
66587;SDS011;53446;50.076;8.198;2023-02-15T07:32:45;190.33;;;42.20;;
66587;SDS011;53446;50.076;8.198;2023-02-15T07:35:04;236.23;;;50.72;;
66587;SDS011;53446;50.076;8.198;2023-02-15T07:37:04;154.93;;;22.00;;
66587;SDS011;53446;50.076;8.198;2023-02-15T07:39:04;188.43;;;24.35;;
66587;SDS011;53446;50.076;8.198;2023-02-15T07:41:08;283.77;;;22.93;;
66587;SDS011;53446;50.076;8.198;2023-02-15T07:43:09;217.57;;;23.05;;
66587;SDS011;53446;50.076;8.198;2023-02-15T07:45:09;135.40;;;22.27;;
66587;SDS011;53446;50.076;8.198;2023-02-15T07:47:09;205.37;;;20.47;;
66587;SDS011;53446;50.076;8.198;2023-02-15T07:49:09;230.05;;;22.75;;
66587;SDS011;53446;50.076;8.198;2023-02-15T07:51:10;290.17;;;26.90;;
66587;SDS011;53446;50.076;8.198;2023-02-15T07:53:10;164.07;;;22.20;;
66587;SDS011;53446;50.076;8.198;2023-02-15T07:55:11;359.27;;;28.97;;
66587;SDS011;53446;50.076;8.198;2023-02-15T07:57:12;175.40;;;18.55;;
66587;SDS011;53446;50.076;8.198;2023-02-15T07:59:12;199.90;;;21.87;;
66587;SDS011;53446;50.076;8.198;2023-02-15T08:01:13;102.47;;;16.80;;
66587;SDS011;53446;50.076;8.198;2023-02-15T08:03:13;145.90;;;17.63;;
66587;SDS011;53446;50.076;8.198;2023-02-15T08:05:13;66.47;;;15.27;;
66587;SDS011;53446;50.076;8.198;2023-02-15T08:07:13;315.73;;;38.63;;
66587;SDS011;53446;50.076;8.198;2023-02-15T08:09:14;87.37;;;16.97;;
66587;SDS011;53446;50.076;8.198;2023-02-15T08:11:24;178.53;;;19.63;;
66587;SDS011;53446;50.076;8.198;2023-02-15T08:13:33;191.30;;;21.95;;
66587;SDS011;53446;50.076;8.198;2023-02-15T08:15:34;184.60;;;24.75;;
66587;SDS011;53446;50.076;8.198;2023-02-15T08:17:35;125.33;;;17.83;;
66587;SDS011;53446;50.076;8.198;2023-02-15T08:19:36;91.18;;;16.20;;
66587;SDS011;53446;50.076;8.198;2023-02-15T08:21:38;85.47;;;15.47;;
66587;SDS011;53446;50.076;8.198;2023-02-15T08:23:38;55.65;;;14.02;;
66587;SDS011;53446;50.076;8.198;2023-02-15T08:25:38;218.03;;;19.47;;
66587;SDS011;53446;50.076;8.198;2023-02-15T08:27:38;70.63;;;17.13;;
66587;SDS011;53446;50.076;8.198;2023-02-15T08:29:38;39.67;;;13.53;;
66587;SDS011;53446;50.076;8.198;2023-02-15T08:31:39;81.47;;;15.13;;
66587;SDS011;53446;50.076;8.198;2023-02-15T08:33:41;65.78;;;14.32;;
66587;SDS011;53446;50.076;8.198;2023-02-15T08:35:41;72.13;;;14.63;;
66587;SDS011;53446;50.076;8.198;2023-02-15T08:37:41;101.93;;;15.73;;
66587;SDS011;53446;50.076;8.198;2023-02-15T08:39:41;46.40;;;11.83;;
66587;SDS011;53446;50.076;8.198;2023-02-15T08:41:44;44.20;;;12.75;;
66587;SDS011;53446;50.076;8.198;2023-02-15T08:43:45;43.75;;;12.20;;
66587;SDS011;53446;50.076;8.198;2023-02-15T08:45:46;30.57;;;11.37;;
66587;SDS011;53446;50.076;8.198;2023-02-15T08:47:46;34.17;;;10.87;;
66587;SDS011;53446;50.076;8.198;2023-02-15T08:49:46;35.27;;;11.07;;
66587;SDS011;53446;50.076;8.198;2023-02-15T08:51:47;29.70;;;10.67;;
66587;SDS011;53446;50.076;8.198;2023-02-15T08:53:48;46.85;;;13.20;;
66587;SDS011;53446;50.076;8.198;2023-02-15T08:55:58;59.63;;;17.67;;
66587;SDS011;53446;50.076;8.198;2023-02-15T08:57:59;110.47;;;17.02;;
66587;SDS011;53446;50.076;8.198;2023-02-15T08:59:59;77.77;;;13.87;;
66587;SDS011;53446;50.076;8.198;2023-02-15T09:01:59;64.47;;;13.00;;
66587;SDS011;53446;50.076;8.198;2023-02-15T09:04:01;36.47;;;12.60;;
66587;SDS011;53446;50.076;8.198;2023-02-15T09:06:01;39.90;;;13.35;;
66587;SDS011;53446;50.076;8.198;2023-02-15T09:08:01;38.03;;;12.27;;
66587;SDS011;53446;50.076;8.198;2023-02-15T09:10:01;47.70;;;13.57;;
66587;SDS011;53446;50.076;8.198;2023-02-15T09:12:02;50.30;;;13.60;;
66587;SDS011;53446;50.076;8.198;2023-02-15T09:14:03;61.47;;;14.30;;
66587;SDS011;53446;50.076;8.198;2023-02-15T09:16:07;53.63;;;14.93;;
66587;SDS011;53446;50.076;8.198;2023-02-15T09:18:07;76.75;;;16.52;;
66587;SDS011;53446;50.076;8.198;2023-02-15T09:20:07;46.57;;;15.57;;
66587;SDS011;53446;50.076;8.198;2023-02-15T09:22:08;50.87;;;15.67;;
66587;SDS011;53446;50.076;8.198;2023-02-15T09:24:09;38.90;;;13.67;;
66587;SDS011;53446;50.076;8.198;2023-02-15T09:26:12;47.45;;;16.70;;
66587;SDS011;53446;50.076;8.198;2023-02-15T09:28:12;53.95;;;13.90;;
66587;SDS011;53446;50.076;8.198;2023-02-15T09:30:12;41.03;;;13.48;;
66587;SDS011;53446;50.076;8.198;2023-02-15T09:32:15;81.10;;;14.17;;
66587;SDS011;53446;50.076;8.198;2023-02-15T09:34:18;62.58;;;13.88;;
66587;SDS011;53446;50.076;8.198;2023-02-15T09:36:20;56.17;;;17.40;;
66587;SDS011;53446;50.076;8.198;2023-02-15T09:38:21;49.40;;;13.48;;
66587;SDS011;53446;50.076;8.198;2023-02-15T09:40:21;55.03;;;14.63;;
66587;SDS011;53446;50.076;8.198;2023-02-15T09:42:43;44.30;;;13.33;;
66587;SDS011;53446;50.076;8.198;2023-02-15T09:49:12;42.42;;;14.13;;
66587;SDS011;53446;50.076;8.198;2023-02-15T09:51:22;43.50;;;13.18;;
66587;SDS011;53446;50.076;8.198;2023-02-15T09:53:37;48.80;;;16.15;;
66587;SDS011;53446;50.076;8.198;2023-02-15T09:55:46;46.72;;;13.85;;
66587;SDS011;53446;50.076;8.198;2023-02-15T10:02:03;37.42;;;12.68;;
66587;SDS011;53446;50.076;8.198;2023-02-15T10:12:49;33.40;;;11.55;;
66587;SDS011;53446;50.076;8.198;2023-02-15T10:14:55;32.10;;;10.83;;
66587;SDS011;53446;50.076;8.198;2023-02-15T10:25:01;38.47;;;12.33;;
66587;SDS011;53446;50.076;8.198;2023-02-15T10:27:07;38.53;;;12.57;;
66587;SDS011;53446;50.076;8.198;2023-02-15T10:29:15;40.63;;;12.90;;
66587;SDS011;53446;50.076;8.198;2023-02-15T10:31:27;48.28;;;11.40;;
66587;SDS011;53446;50.076;8.198;2023-02-15T10:33:41;33.15;;;11.98;;
66587;SDS011;53446;50.076;8.198;2023-02-15T10:38:03;47.35;;;12.05;;
66587;SDS011;53446;50.076;8.198;2023-02-15T10:57:02;63.15;;;33.15;;
66587;SDS011;53446;50.076;8.198;2023-02-15T11:01:25;41.33;;;18.70;;
66587;SDS011;53446;50.076;8.198;2023-02-15T11:03:36;40.80;;;15.82;;
66587;SDS011;53446;50.076;8.198;2023-02-15T11:07:41;37.60;;;14.30;;
66587;SDS011;53446;50.076;8.198;2023-02-15T11:09:44;43.35;;;19.95;;
66587;SDS011;53446;50.076;8.198;2023-02-15T11:11:48;41.10;;;16.65;;
66587;SDS011;53446;50.076;8.198;2023-02-15T11:13:50;40.88;;;14.25;;
66587;SDS011;53446;50.076;8.198;2023-02-15T11:17:58;35.87;;;13.80;;
66587;SDS011;53446;50.076;8.198;2023-02-15T11:22:12;50.97;;;22.00;;
66587;SDS011;53446;50.076;8.198;2023-02-15T11:24:13;59.97;;;30.30;;
66587;SDS011;53446;50.076;8.198;2023-02-15T11:26:19;36.10;;;15.75;;
66587;SDS011;53446;50.076;8.198;2023-02-15T11:28:27;43.95;;;17.70;;
66587;SDS011;53446;50.076;8.198;2023-02-15T11:30:37;34.80;;;13.57;;
66587;SDS011;53446;50.076;8.198;2023-02-15T11:32:44;43.38;;;19.13;;
66587;SDS011;53446;50.076;8.198;2023-02-15T11:37:06;34.15;;;12.90;;
66587;SDS011;53446;50.076;8.198;2023-02-15T11:39:09;41.40;;;14.57;;
66587;SDS011;53446;50.076;8.198;2023-02-15T11:41:11;35.60;;;13.90;;
66587;SDS011;53446;50.076;8.198;2023-02-15T11:43:15;37.33;;;15.80;;
66587;SDS011;53446;50.076;8.198;2023-02-15T11:45:22;36.60;;;15.55;;
66587;SDS011;53446;50.076;8.198;2023-02-15T11:47:25;36.42;;;14.02;;
66587;SDS011;53446;50.076;8.198;2023-02-15T11:51:29;35.70;;;13.95;;
66587;SDS011;53446;50.076;8.198;2023-02-15T11:53:31;30.97;;;13.27;;
66587;SDS011;53446;50.076;8.198;2023-02-15T11:55:32;32.15;;;12.65;;
66587;SDS011;53446;50.076;8.198;2023-02-15T11:57:37;33.57;;;14.17;;
66587;SDS011;53446;50.076;8.198;2023-02-15T11:59:39;33.10;;;13.43;;
66587;SDS011;53446;50.076;8.198;2023-02-15T12:01:44;29.73;;;13.40;;
66587;SDS011;53446;50.076;8.198;2023-02-15T12:03:48;32.20;;;13.82;;
66587;SDS011;53446;50.076;8.198;2023-02-15T12:05:49;30.30;;;13.15;;
66587;SDS011;53446;50.076;8.198;2023-02-15T12:07:52;34.47;;;13.77;;
66587;SDS011;53446;50.076;8.198;2023-02-15T12:12:19;33.33;;;13.93;;
66587;SDS011;53446;50.076;8.198;2023-02-15T12:14:20;36.22;;;13.68;;
66587;SDS011;53446;50.076;8.198;2023-02-15T12:16:20;34.73;;;13.70;;
66587;SDS011;53446;50.076;8.198;2023-02-15T12:18:34;37.53;;;14.77;;
66587;SDS011;53446;50.076;8.198;2023-02-15T12:20:42;34.67;;;13.93;;
66587;SDS011;53446;50.076;8.198;2023-02-15T12:22:46;42.03;;;21.95;;
66587;SDS011;53446;50.076;8.198;2023-02-15T12:24:48;109.30;;;76.15;;
66587;SDS011;53446;50.076;8.198;2023-02-15T12:27:23;51.88;;;26.63;;
66587;SDS011;53446;50.076;8.198;2023-02-15T12:29:16;42.40;;;17.00;;
66587;SDS011;53446;50.076;8.198;2023-02-15T12:31:43;38.45;;;15.02;;
66587;SDS011;53446;50.076;8.198;2023-02-15T12:33:41;56.38;;;27.33;;
66587;SDS011;53446;50.076;8.198;2023-02-15T12:35:45;32.17;;;13.57;;
66587;SDS011;53446;50.076;8.198;2023-02-15T12:37:53;33.67;;;14.90;;
66587;SDS011;53446;50.076;8.198;2023-02-15T12:39:55;64.10;;;37.25;;
66587;SDS011;53446;50.076;8.198;2023-02-15T12:42:00;34.78;;;15.10;;
66587;SDS011;53446;50.076;8.198;2023-02-15T12:44:05;34.58;;;14.43;;
66587;SDS011;53446;50.076;8.198;2023-02-15T12:46:22;31.00;;;13.32;;
66587;SDS011;53446;50.076;8.198;2023-02-15T12:48:23;30.20;;;13.65;;
66587;SDS011;53446;50.076;8.198;2023-02-15T12:50:24;33.00;;;13.73;;
66587;SDS011;53446;50.076;8.198;2023-02-15T12:52:27;33.38;;;14.00;;
66587;SDS011;53446;50.076;8.198;2023-02-15T12:54:29;29.13;;;13.87;;
66587;SDS011;53446;50.076;8.198;2023-02-15T12:56:29;48.22;;;28.25;;
66587;SDS011;53446;50.076;8.198;2023-02-15T12:58:39;33.57;;;15.00;;
66587;SDS011;53446;50.076;8.198;2023-02-15T13:00:39;38.30;;;16.33;;
66587;SDS011;53446;50.076;8.198;2023-02-15T13:04:46;30.63;;;13.90;;
66587;SDS011;53446;50.076;8.198;2023-02-15T13:06:48;32.47;;;14.05;;
66587;SDS011;53446;50.076;8.198;2023-02-15T13:08:49;29.98;;;13.38;;
66587;SDS011;53446;50.076;8.198;2023-02-15T13:11:00;33.13;;;14.63;;